Maersk Weymouth — VRFS9 — position and weather

sailwx.info

Track history (hours):
 
Tides and Currents Weather Stations Pressure Air Temp Water Temp Dewpoint Dewpoint Depression Visibility Wind Speed Wind Dir Waves Ship Positions

Maersk Weymouth

Last reported at 2017-Jun-21 13:22 UTC. Time now 2017-Jun-25 18:50 UTC.
Position N 09°30' W 079°54'.

Length 175 m; draft 8.4 m.

Type: Cargo ship. MMSI: 477622100.

Date/timePositionNaut miles runAvg speedWind from/ knotsBaromVisibWave heightAir tempDewpointWater temp
2017-Jun-21 13:22N 09°30' W 079°54'615.8
2017-Jun-21 13:00N 09°24' W 079°54'2 4.3
2017-Jun-21 12:30N 09°22' W 079°53'0 0.0
2017-Jun-21 12:00N 09°22' W 079°53'0 0.0
2017-Jun-21 11:30N 09°22' W 079°53'0 0.0
2017-Jun-21 11:00N 09°22' W 079°53'0 0.0
2017-Jun-21 10:30N 09°22' W 079°53'0 0.0
2017-Jun-21 10:00N 09°22' W 079°53'0 0.0
2017-Jun-21 09:30N 09°22' W 079°53'0 0.0
2017-Jun-21 09:00N 09°22' W 079°53'0 0.0
2017-Jun-21 08:30N 09°22' W 079°53'0 0.0
2017-Jun-21 08:00N 09°22' W 079°53'0 0.0
2017-Jun-21 07:30N 09°22' W 079°53'0 0.0
2017-Jun-21 07:00N 09°22' W 079°53'0 0.0
2017-Jun-21 06:30N 09°22' W 079°53'0 0.0
2017-Jun-21 06:00N 09°22' W 079°53'0 0.0
2017-Jun-21 05:30N 09°22' W 079°53'0 0.0
2017-Jun-21 05:00N 09°22' W 079°53'0 0.0
2017-Jun-21 04:30N 09°22' W 079°53'0 0.0
2017-Jun-21 04:00N 09°22' W 079°53'0 0.0
2017-Jun-21 03:30N 09°22' W 079°53'0 0.0
2017-Jun-21 03:00N 09°22' W 079°53'0 0.0
2017-Jun-21 02:30N 09°22' W 079°53'0 0.0
2017-Jun-21 02:00N 09°22' W 079°53'0 0.0
2017-Jun-21 01:30N 09°22' W 079°53'0 0.0
2017-Jun-21 01:00N 09°22' W 079°53'0 0.8
2017-Jun-21 00:30N 09°22' W 079°53'0 0.6
2017-Jun-21 00:00N 09°22' W 079°53'0 0.0
2017-Jun-20 23:30N 09°22' W 079°53'0 0.0
2017-Jun-20 23:00N 09°22' W 079°53'0 0.0
2017-Jun-20 22:30N 09°22' W 079°53'0 0.0
2017-Jun-20 22:00N 09°22' W 079°53'0 0.0
2017-Jun-20 21:30N 09°22' W 079°53'0 0.0
2017-Jun-20 21:00N 09°22' W 079°53'0 0.0
2017-Jun-20 20:27N 09°22' W 079°53'0 0.0
2017-Jun-20 20:00N 09°22' W 079°53'0 0.0
2017-Jun-20 19:30N 09°22' W 079°53'0 0.0
2017-Jun-20 19:00N 09°22' W 079°53'0 0.0
2017-Jun-20 18:27N 09°22' W 079°53'0 0.0
2017-Jun-20 18:00N 09°22' W 079°53'0 0.0
2017-Jun-20 17:27N 09°22' W 079°53'0 0.0
2017-Jun-20 17:00N 09°22' W 079°53'0 0.0
2017-Jun-20 16:30N 09°22' W 079°53'0 0.0
2017-Jun-20 16:00N 09°22' W 079°53'0 0.0
2017-Jun-20 15:30N 09°22' W 079°53'0 0.0
2017-Jun-20 14:57N 09°22' W 079°53'0 0.0
2017-Jun-20 14:00N 09°22' W 079°53'0 0.0
2017-Jun-20 13:30N 09°22' W 079°53'0 0.0
2017-Jun-20 13:00N 09°22' W 079°53'0 0.0
2017-Jun-20 12:30N 09°22' W 079°53'0 0.0
2017-Jun-20 12:00N 09°22' W 079°53'0 0.3
2017-Jun-20 11:30N 09°22' W 079°53'3 5.7
2017-Jun-20 11:00N 09°25' W 079°54'1 1.9
2017-Jun-20 10:30N 09°26' W 079°54'0 0.3
2017-Jun-20 10:00N 09°26' W 079°54'1 2.7
2017-Jun-20 09:30N 09°27' W 079°53'4 7.5
2017-Jun-20 09:00N 09°30' W 079°55'5 9.8
2017-Jun-20 08:30N 09°32' W 080°00'  
2017-Jun-12 03:36N 25°31' W 079°30'216.6
2017-Jun-12 03:30N 25°32' W 079°30'816.4
2017-Jun-12 03:00N 25°40' W 079°29'916.3
2017-Jun-12 02:27N 25°49' W 079°27'1416.3
2017-Jun-12 01:34N 26°04' W 079°25'116.2
2017-Jun-12 01:30N 26°04' W 079°25'816.2
2017-Jun-12 01:00N 26°13' W 079°24'2316.1
2017-Jun-11 23:33N 26°36' W 079°25'216.1
2017-Jun-11 23:25N 26°38' W 079°25'716.5
2017-Jun-11 23:00N 26°45' W 079°23'  
Track history (hours):
 
Tides and Currents Weather Stations Pressure Air Temp Water Temp Dewpoint Dewpoint Depression Visibility Wind Speed Wind Dir Waves Ship Positions

Maersk Weymouth

Last reported at 2017-Jun-21 13:22 UTC. Time now 2017-Jun-25 18:50 UTC.
Position N 09°30' W 079°54'.

Length 175 m; draft 8.4 m.

Type: Cargo ship. MMSI: 477622100.

Date/timePositionNaut miles runAvg speedWind from/ knotsBaromVisibWave heightAir tempDewpointWater temp
2017-Jun-21 13:22N 09°30' W 079°54'615.8
2017-Jun-21 13:00N 09°24' W 079°54'2 4.3
2017-Jun-21 12:30N 09°22' W 079°53'0 0.0
2017-Jun-21 12:00N 09°22' W 079°53'0 0.0
2017-Jun-21 11:30N 09°22' W 079°53'0 0.0
2017-Jun-21 11:00N 09°22' W 079°53'0 0.0
2017-Jun-21 10:30N 09°22' W 079°53'0 0.0
2017-Jun-21 10:00N 09°22' W 079°53'0 0.0
2017-Jun-21 09:30N 09°22' W 079°53'0 0.0
2017-Jun-21 09:00N 09°22' W 079°53'0 0.0
2017-Jun-21 08:30N 09°22' W 079°53'0 0.0
2017-Jun-21 08:00N 09°22' W 079°53'0 0.0
2017-Jun-21 07:30N 09°22' W 079°53'0 0.0
2017-Jun-21 07:00N 09°22' W 079°53'0 0.0
2017-Jun-21 06:30N 09°22' W 079°53'0 0.0
2017-Jun-21 06:00N 09°22' W 079°53'0 0.0
2017-Jun-21 05:30N 09°22' W 079°53'0 0.0
2017-Jun-21 05:00N 09°22' W 079°53'0 0.0
2017-Jun-21 04:30N 09°22' W 079°53'0 0.0
2017-Jun-21 04:00N 09°22' W 079°53'0 0.0
2017-Jun-21 03:30N 09°22' W 079°53'0 0.0
2017-Jun-21 03:00N 09°22' W 079°53'0 0.0
2017-Jun-21 02:30N 09°22' W 079°53'0 0.0
2017-Jun-21 02:00N 09°22' W 079°53'0 0.0
2017-Jun-21 01:30N 09°22' W 079°53'0 0.0
2017-Jun-21 01:00N 09°22' W 079°53'0 0.8
2017-Jun-21 00:30N 09°22' W 079°53'0 0.6
2017-Jun-21 00:00N 09°22' W 079°53'0 0.0
2017-Jun-20 23:30N 09°22' W 079°53'0 0.0
2017-Jun-20 23:00N 09°22' W 079°53'0 0.0
2017-Jun-20 22:30N 09°22' W 079°53'0 0.0
2017-Jun-20 22:00N 09°22' W 079°53'0 0.0
2017-Jun-20 21:30N 09°22' W 079°53'0 0.0
2017-Jun-20 21:00N 09°22' W 079°53'0 0.0
2017-Jun-20 20:27N 09°22' W 079°53'0 0.0
2017-Jun-20 20:00N 09°22' W 079°53'0 0.0
2017-Jun-20 19:30N 09°22' W 079°53'0 0.0
2017-Jun-20 19:00N 09°22' W 079°53'0 0.0
2017-Jun-20 18:27N 09°22' W 079°53'0 0.0
2017-Jun-20 18:00N 09°22' W 079°53'0 0.0
2017-Jun-20 17:27N 09°22' W 079°53'0 0.0
2017-Jun-20 17:00N 09°22' W 079°53'0 0.0
2017-Jun-20 16:30N 09°22' W 079°53'0 0.0
2017-Jun-20 16:00N 09°22' W 079°53'0 0.0
2017-Jun-20 15:30N 09°22' W 079°53'0 0.0
2017-Jun-20 14:57N 09°22' W 079°53'0 0.0
2017-Jun-20 14:00N 09°22' W 079°53'0 0.0
2017-Jun-20 13:30N 09°22' W 079°53'0 0.0
2017-Jun-20 13:00N 09°22' W 079°53'0 0.0
2017-Jun-20 12:30N 09°22' W 079°53'0 0.0
2017-Jun-20 12:00N 09°22' W 079°53'0 0.3
2017-Jun-20 11:30N 09°22' W 079°53'3 5.7
2017-Jun-20 11:00N 09°25' W 079°54'1 1.9
2017-Jun-20 10:30N 09°26' W 079°54'0 0.3
2017-Jun-20 10:00N 09°26' W 079°54'1 2.7
2017-Jun-20 09:30N 09°27' W 079°53'4 7.5
2017-Jun-20 09:00N 09°30' W 079°55'5 9.8
2017-Jun-20 08:30N 09°32' W 080°00'  
2017-Jun-12 03:36N 25°31' W 079°30'216.6
2017-Jun-12 03:30N 25°32' W 079°30'816.4
2017-Jun-12 03:00N 25°40' W 079°29'916.3
2017-Jun-12 02:27N 25°49' W 079°27'1416.3
2017-Jun-12 01:34N 26°04' W 079°25'116.2
2017-Jun-12 01:30N 26°04' W 079°25'816.2
2017-Jun-12 01:00N 26°13' W 079°24'2316.1
2017-Jun-11 23:33N 26°36' W 079°25'216.1
2017-Jun-11 23:25N 26°38' W 079°25'716.5
2017-Jun-11 23:00N 26°45' W 079°23'  

Dump ship's entire track history